Погода Аварена неделю

Сан-Паулу, Бразилия

21 - 27 июля
  • 21июля
    Сегодня
    +14°
    +27°
    Ясно и безоблачно
    ВремяПогодаТемператураВлажностьДавлениеВетер, м/сВероятность осадков
    00:00Ясно и безоблачно+13°C90 %700 мм3.9 м/с5 %
    03:00Ясно и безоблачно+11°C89 %699 мм3.7 м/с5 %
    06:00Ясно и безоблачно+11°C92 %699 мм3.2 м/с5 %
    09:00Ясно и безоблачно+15°C73 %701 мм1.6 м/с5 %
    12:00Ясно и безоблачно+23°C48 %702 мм0.7 м/с5 %
    15:00Ясно и безоблачно+26°C45 %701 мм1.5 м/с5 %
    18:00Ясно и безоблачно+22°C70 %700 мм2.0 м/с5 %
    21:00Ясно и безоблачно+20°C74 %700 мм2.2 м/с5 %
  • 22июля
    Понедельник
    +13°
    +27°
    Ясно и безоблачно
    ВремяПогодаТемператураВлажностьДавлениеВетер, м/сВероятность осадков
    00:00Ясно и безоблачно+16°C78 %700 мм2.1 м/с5 %
    03:00Ясно и безоблачно+14°C81 %699 мм1.9 м/с5 %
    06:00Ясно и безоблачно+15°C86 %700 мм1.9 м/с5 %
    09:00Ясно и безоблачно+19°C68 %701 мм1.1 м/с5 %
    12:00Ясно и безоблачно+24°C49 %702 мм0.7 м/с5 %
    15:00Ясно и безоблачно+26°C39 %701 мм2.5 м/с5 %
    18:00Ясно и безоблачно+23°C52 %701 мм2.0 м/с5 %
    21:00Ясно и безоблачно+20°C64 %701 мм3.4 м/с5 %
  • 23июля
    Вторник
    +13°
    +27°
    Практически безоблачно
    ВремяПогодаТемператураВлажностьДавлениеВетер, м/сВероятность осадков
    00:00Ясно и безоблачно+16°C72 %701 мм3.7 м/с5 %
    03:00Ясно и безоблачно+14°C75 %700 мм3.3 м/с5 %
    06:00Ясно и безоблачно+14°C79 %700 мм3.3 м/с5 %
    09:00Ясно и безоблачно+17°C62 %702 мм3.1 м/с5 %
    12:00Ясно и безоблачно+23°C40 %703 мм3.0 м/с5 %
    15:00Практически безоблачно+26°C36 %701 мм2.3 м/с5 %
    18:00Практически безоблачно+23°C52 %701 мм2.4 м/с5 %
    21:00Практически безоблачно+18°C72 %701 мм3.7 м/с5 %
  • 24июля
    Среда
    +15°
    +29°
    Облачно с прояснениями
    ВремяПогодаТемператураВлажностьДавлениеВетер, м/сВероятность осадков
    00:00Облачно с прояснениями+15°C87 %701 мм3.4 м/с5 %
    03:00Небольшая облачность+13°C82 %699 мм3.2 м/с5 %
    06:00Ясно и безоблачно+14°C73 %699 мм2.9 м/с5 %
    09:00Практически безоблачно+18°C62 %702 мм2.2 м/с5 %
    12:00Облачно с прояснениями+26°C40 %703 мм1.5 м/с5 %
    15:00Облачно с прояснениями+28°C32 %701 мм0.9 м/с5 %
    18:00Небольшая облачность+24°C50 %700 мм1.1 м/с5 %
    21:00Небольшая облачность+21°C65 %700 мм2.1 м/с5 %
  • 25июля
    Четверг
    +16°
    +29°
    Ясно и безоблачно
    ВремяПогодаТемператураВлажностьДавлениеВетер, м/сВероятность осадков
    00:00Ясно и безоблачно+17°C64 %700 мм2.2 м/с5 %
    03:00Ясно и безоблачно+15°C70 %699 мм2.3 м/с5 %
    06:00Ясно и безоблачно+16°C74 %699 мм2.3 м/с5 %
    09:00Ясно и безоблачно+20°C58 %701 мм1.4 м/с5 %
    12:00Ясно и безоблачно+27°C33 %701 мм3.1 м/с5 %
    15:00Ясно и безоблачно+29°C30 %699 мм3.0 м/с5 %
    18:00Ясно и безоблачно+25°C48 %699 мм2.1 м/с5 %
    21:00Ясно и безоблачно+23°C53 %699 мм1.4 м/с5 %
Мы используем cookies
Соглашаюсь